Woodside Reeswithers — SVCM9 — position and weather

sailwx.info

Track history (hours):
 
Tides and Currents Weather Stations Pressure Air Temp Water Temp Dewpoint Dewpoint Depression Visibility Wind Speed Wind Dir Waves Ship Positions

Woodside Reeswithers

Last reported at 2018-Jun-02 15:03 UTC. Time now 2018-Jun-25 17:50 UTC.
Position N 33°37' E 134°51'.
Warning: this ship's position is 23 days out of date.

Length 295 m; draft 9.3 m.

Type: Ship (hazmat cat A). MMSI: 241467000.

Date/timePositionNaut miles runAvg speedWind from/ knotsBaromVisibWave heightAir tempDewpointWater temp
2018-Jun-02 15:03N 33°37' E 134°51'116.7
2018-Jun-02 15:00N 33°37' E 134°51'1016.6
2018-Jun-02 14:22N 33°48' E 134°52'616.5
2018-Jun-02 14:01N 33°54' E 134°54'816.3
2018-Jun-02 13:30N 34°02' E 134°54'816.0
2018-Jun-02 13:00N 34°10' E 134°56'611.0
2018-Jun-02 12:30N 34°15' E 134°58'5 9.8
2018-Jun-02 12:00N 34°20' E 134°59'612.4
2018-Jun-02 11:30N 34°26' E 135°02'612.6
2018-Jun-02 11:00N 34°31' E 135°06'3 6.7
2018-Jun-02 10:30N 34°34' E 135°06'610.1
2018-Jun-02 09:53N 34°37' E 134°59'513.7
2018-Jun-02 09:30N 34°35' E 134°53'713.8
2018-Jun-02 09:00N 34°33' E 134°45'612.6
2018-Jun-02 08:30N 34°38' E 134°42'712.8
2018-Jun-02 08:00N 34°45' E 134°41'1 0.0
2018-Jun-01 00:35N 34°46' E 134°41'0 0.4
2018-Jun-01 00:30N 34°46' E 134°41'2 3.0
2018-Jun-01 00:00N 34°44' E 134°41'6 9.8
2018-May-31 23:26N 34°39' E 134°41'512.2
2018-May-31 23:00N 34°34' E 134°43'714.8
2018-May-31 22:30N 34°35' E 134°52'714.5
2018-May-31 22:00N 34°38' E 135°00'510.5
2018-May-31 21:30N 34°35' E 135°06'3 5.0
2018-May-31 21:00N 34°33' E 135°08'5 9.8
2018-May-31 20:30N 34°29' E 135°05'510.9
2018-May-31 20:00N 34°24' E 135°03'612.9
2018-May-31 19:30N 34°18' E 134°59'611.3
2018-May-31 19:00N 34°12' E 134°60'4 8.7
2018-May-31 18:30N 34°08' E 134°60'3 6.4
2018-May-31 18:00N 34°05' E 134°60'4 7.8
2018-May-31 17:30N 34°01' E 134°59'510.2
2018-May-31 17:00N 33°56' E 134°58'510.4
2018-May-31 16:30N 33°51' E 134°59'510.3
2018-May-31 16:00N 33°46' E 134°58'710.5
2018-May-31 15:20N 33°39' E 134°56'411.6
2018-May-31 15:00N 33°35' E 134°56'  
Track history (hours):
 
Tides and Currents Weather Stations Pressure Air Temp Water Temp Dewpoint Dewpoint Depression Visibility Wind Speed Wind Dir Waves Ship Positions

Woodside Reeswithers

Last reported at 2018-Jun-02 15:03 UTC. Time now 2018-Jun-25 17:50 UTC.
Position N 33°37' E 134°51'.
Warning: this ship's position is 23 days out of date.

Length 295 m; draft 9.3 m.

Type: Ship (hazmat cat A). MMSI: 241467000.

Date/timePositionNaut miles runAvg speedWind from/ knotsBaromVisibWave heightAir tempDewpointWater temp
2018-Jun-02 15:03N 33°37' E 134°51'116.7
2018-Jun-02 15:00N 33°37' E 134°51'1016.6
2018-Jun-02 14:22N 33°48' E 134°52'616.5
2018-Jun-02 14:01N 33°54' E 134°54'816.3
2018-Jun-02 13:30N 34°02' E 134°54'816.0
2018-Jun-02 13:00N 34°10' E 134°56'611.0
2018-Jun-02 12:30N 34°15' E 134°58'5 9.8
2018-Jun-02 12:00N 34°20' E 134°59'612.4
2018-Jun-02 11:30N 34°26' E 135°02'612.6
2018-Jun-02 11:00N 34°31' E 135°06'3 6.7
2018-Jun-02 10:30N 34°34' E 135°06'610.1
2018-Jun-02 09:53N 34°37' E 134°59'513.7
2018-Jun-02 09:30N 34°35' E 134°53'713.8
2018-Jun-02 09:00N 34°33' E 134°45'612.6
2018-Jun-02 08:30N 34°38' E 134°42'712.8
2018-Jun-02 08:00N 34°45' E 134°41'1 0.0
2018-Jun-01 00:35N 34°46' E 134°41'0 0.4
2018-Jun-01 00:30N 34°46' E 134°41'2 3.0
2018-Jun-01 00:00N 34°44' E 134°41'6 9.8
2018-May-31 23:26N 34°39' E 134°41'512.2
2018-May-31 23:00N 34°34' E 134°43'714.8
2018-May-31 22:30N 34°35' E 134°52'714.5
2018-May-31 22:00N 34°38' E 135°00'510.5
2018-May-31 21:30N 34°35' E 135°06'3 5.0
2018-May-31 21:00N 34°33' E 135°08'5 9.8
2018-May-31 20:30N 34°29' E 135°05'510.9
2018-May-31 20:00N 34°24' E 135°03'612.9
2018-May-31 19:30N 34°18' E 134°59'611.3
2018-May-31 19:00N 34°12' E 134°60'4 8.7
2018-May-31 18:30N 34°08' E 134°60'3 6.4
2018-May-31 18:00N 34°05' E 134°60'4 7.8
2018-May-31 17:30N 34°01' E 134°59'510.2
2018-May-31 17:00N 33°56' E 134°58'510.4
2018-May-31 16:30N 33°51' E 134°59'510.3
2018-May-31 16:00N 33°46' E 134°58'710.5
2018-May-31 15:20N 33°39' E 134°56'411.6
2018-May-31 15:00N 33°35' E 134°56'  

Dump ship's entire track history